sensor_id;sensor_type;location;lat;lon;timestamp;P1;durP1;ratioP1;P2;durP2;ratioP2
24559;SDS011;12727;49.934;8.656;2023-04-30T00:00:47;9.20;;;7.03;;
24559;SDS011;12727;49.934;8.656;2023-04-30T00:03:13;11.48;;;7.60;;
24559;SDS011;12727;49.934;8.656;2023-04-30T00:05:38;10.65;;;6.95;;
24559;SDS011;12727;49.934;8.656;2023-04-30T00:08:04;11.80;;;8.60;;
24559;SDS011;12727;49.934;8.656;2023-04-30T00:10:30;11.63;;;7.50;;
24559;SDS011;12727;49.934;8.656;2023-04-30T00:12:56;12.13;;;8.07;;
24559;SDS011;12727;49.934;8.656;2023-04-30T00:15:21;12.48;;;7.93;;
24559;SDS011;12727;49.934;8.656;2023-04-30T00:17:47;14.13;;;9.10;;
24559;SDS011;12727;49.934;8.656;2023-04-30T00:20:13;11.82;;;8.40;;
24559;SDS011;12727;49.934;8.656;2023-04-30T00:22:39;12.93;;;8.55;;
24559;SDS011;12727;49.934;8.656;2023-04-30T00:25:04;11.68;;;8.10;;
24559;SDS011;12727;49.934;8.656;2023-04-30T00:27:30;15.23;;;9.02;;
24559;SDS011;12727;49.934;8.656;2023-04-30T00:29:56;13.80;;;8.48;;
24559;SDS011;12727;49.934;8.656;2023-04-30T00:32:22;13.50;;;8.65;;
24559;SDS011;12727;49.934;8.656;2023-04-30T00:34:47;12.77;;;8.27;;
24559;SDS011;12727;49.934;8.656;2023-04-30T00:37:13;13.85;;;9.48;;
24559;SDS011;12727;49.934;8.656;2023-04-30T00:39:39;12.93;;;8.52;;
24559;SDS011;12727;49.934;8.656;2023-04-30T00:42:04;12.23;;;7.93;;
24559;SDS011;12727;49.934;8.656;2023-04-30T00:44:30;11.63;;;8.10;;
24559;SDS011;12727;49.934;8.656;2023-04-30T00:46:55;12.52;;;8.35;;
24559;SDS011;12727;49.934;8.656;2023-04-30T00:49:21;11.60;;;7.63;;
24559;SDS011;12727;49.934;8.656;2023-04-30T00:51:47;13.55;;;8.85;;
24559;SDS011;12727;49.934;8.656;2023-04-30T00:54:13;14.23;;;10.05;;
24559;SDS011;12727;49.934;8.656;2023-04-30T00:56:39;14.93;;;9.32;;
24559;SDS011;12727;49.934;8.656;2023-04-30T00:59:05;16.55;;;10.35;;
24559;SDS011;12727;49.934;8.656;2023-04-30T01:01:31;14.27;;;9.70;;
24559;SDS011;12727;49.934;8.656;2023-04-30T01:03:57;15.07;;;10.45;;
24559;SDS011;12727;49.934;8.656;2023-04-30T01:06:23;14.82;;;10.02;;
24559;SDS011;12727;49.934;8.656;2023-04-30T01:08:50;16.65;;;10.40;;
24559;SDS011;12727;49.934;8.656;2023-04-30T01:14:15;13.45;;;9.13;;
24559;SDS011;12727;49.934;8.656;2023-04-30T01:16:42;16.30;;;9.48;;
24559;SDS011;12727;49.934;8.656;2023-04-30T01:21:52;14.77;;;10.27;;
24559;SDS011;12727;49.934;8.656;2023-04-30T01:25:06;16.88;;;10.10;;
24559;SDS011;12727;49.934;8.656;2023-04-30T01:30:13;15.57;;;10.98;;
24559;SDS011;12727;49.934;8.656;2023-04-30T01:32:41;15.27;;;9.63;;
24559;SDS011;12727;49.934;8.656;2023-04-30T01:35:06;16.70;;;9.32;;
24559;SDS011;12727;49.934;8.656;2023-04-30T01:37:38;16.48;;;10.48;;
24559;SDS011;12727;49.934;8.656;2023-04-30T01:42:54;17.25;;;10.48;;
24559;SDS011;12727;49.934;8.656;2023-04-30T01:50:55;16.35;;;10.40;;
24559;SDS011;12727;49.934;8.656;2023-04-30T01:53:32;18.08;;;11.10;;
24559;SDS011;12727;49.934;8.656;2023-04-30T01:56:08;17.55;;;11.23;;
24559;SDS011;12727;49.934;8.656;2023-04-30T01:58:36;16.45;;;10.82;;
24559;SDS011;12727;49.934;8.656;2023-04-30T02:01:03;15.80;;;9.43;;
24559;SDS011;12727;49.934;8.656;2023-04-30T02:03:29;17.73;;;11.25;;
24559;SDS011;12727;49.934;8.656;2023-04-30T02:05:56;15.20;;;10.25;;
24559;SDS011;12727;49.934;8.656;2023-04-30T02:08:23;17.52;;;10.45;;
24559;SDS011;12727;49.934;8.656;2023-04-30T02:10:48;18.38;;;11.50;;
24559;SDS011;12727;49.934;8.656;2023-04-30T02:13:14;18.13;;;10.98;;
24559;SDS011;12727;49.934;8.656;2023-04-30T02:15:39;19.15;;;11.57;;
24559;SDS011;12727;49.934;8.656;2023-04-30T02:18:05;18.02;;;11.15;;
24559;SDS011;12727;49.934;8.656;2023-04-30T02:20:31;18.13;;;12.45;;
24559;SDS011;12727;49.934;8.656;2023-04-30T02:22:56;20.67;;;12.80;;
24559;SDS011;12727;49.934;8.656;2023-04-30T02:25:22;18.70;;;12.40;;
24559;SDS011;12727;49.934;8.656;2023-04-30T02:27:47;20.35;;;12.07;;
24559;SDS011;12727;49.934;8.656;2023-04-30T02:30:14;19.90;;;12.80;;
24559;SDS011;12727;49.934;8.656;2023-04-30T02:32:40;19.50;;;12.30;;
24559;SDS011;12727;49.934;8.656;2023-04-30T02:35:05;20.05;;;12.52;;
24559;SDS011;12727;49.934;8.656;2023-04-30T02:37:31;19.27;;;12.75;;
24559;SDS011;12727;49.934;8.656;2023-04-30T02:39:56;19.33;;;11.85;;
24559;SDS011;12727;49.934;8.656;2023-04-30T02:42:22;16.67;;;10.90;;
24559;SDS011;12727;49.934;8.656;2023-04-30T02:44:48;21.63;;;12.63;;
24559;SDS011;12727;49.934;8.656;2023-04-30T02:47:13;19.58;;;12.25;;
24559;SDS011;12727;49.934;8.656;2023-04-30T02:49:39;18.75;;;11.98;;
24559;SDS011;12727;49.934;8.656;2023-04-30T02:52:04;20.58;;;13.10;;
24559;SDS011;12727;49.934;8.656;2023-04-30T02:54:31;20.30;;;11.88;;
24559;SDS011;12727;49.934;8.656;2023-04-30T02:56:56;21.38;;;12.32;;
24559;SDS011;12727;49.934;8.656;2023-04-30T02:59:22;18.42;;;12.07;;
24559;SDS011;12727;49.934;8.656;2023-04-30T03:01:47;22.30;;;12.00;;
24559;SDS011;12727;49.934;8.656;2023-04-30T03:04:13;19.00;;;11.48;;
24559;SDS011;12727;49.934;8.656;2023-04-30T03:06:38;19.77;;;12.35;;
24559;SDS011;12727;49.934;8.656;2023-04-30T03:09:04;19.08;;;12.35;;
24559;SDS011;12727;49.934;8.656;2023-04-30T03:11:29;17.88;;;11.30;;
24559;SDS011;12727;49.934;8.656;2023-04-30T03:13:55;22.70;;;12.65;;
24559;SDS011;12727;49.934;8.656;2023-04-30T03:16:21;23.80;;;12.68;;
24559;SDS011;12727;49.934;8.656;2023-04-30T03:18:47;19.27;;;11.95;;
24559;SDS011;12727;49.934;8.656;2023-04-30T03:21:13;20.17;;;12.77;;
24559;SDS011;12727;49.934;8.656;2023-04-30T03:23:39;19.30;;;11.88;;
24559;SDS011;12727;49.934;8.656;2023-04-30T03:26:04;19.20;;;11.40;;
24559;SDS011;12727;49.934;8.656;2023-04-30T03:28:30;20.48;;;11.70;;
24559;SDS011;12727;49.934;8.656;2023-04-30T03:30:56;18.45;;;11.43;;
24559;SDS011;12727;49.934;8.656;2023-04-30T03:33:23;18.95;;;12.15;;
24559;SDS011;12727;49.934;8.656;2023-04-30T03:35:48;18.55;;;11.38;;
24559;SDS011;12727;49.934;8.656;2023-04-30T03:38:15;17.98;;;11.38;;
24559;SDS011;12727;49.934;8.656;2023-04-30T03:40:41;18.30;;;11.38;;
24559;SDS011;12727;49.934;8.656;2023-04-30T03:43:06;19.30;;;10.98;;
24559;SDS011;12727;49.934;8.656;2023-04-30T03:45:32;17.65;;;10.27;;
24559;SDS011;12727;49.934;8.656;2023-04-30T03:47:57;18.05;;;11.35;;
24559;SDS011;12727;49.934;8.656;2023-04-30T03:50:23;15.40;;;10.13;;
24559;SDS011;12727;49.934;8.656;2023-04-30T03:52:48;16.63;;;10.32;;
24559;SDS011;12727;49.934;8.656;2023-04-30T03:55:15;18.90;;;10.55;;
24559;SDS011;12727;49.934;8.656;2023-04-30T03:57:41;17.73;;;10.80;;
24559;SDS011;12727;49.934;8.656;2023-04-30T04:00:07;17.25;;;10.88;;
24559;SDS011;12727;49.934;8.656;2023-04-30T04:02:34;18.00;;;11.27;;
24559;SDS011;12727;49.934;8.656;2023-04-30T04:05:00;19.90;;;11.40;;
24559;SDS011;12727;49.934;8.656;2023-04-30T04:07:27;20.70;;;11.15;;
24559;SDS011;12727;49.934;8.656;2023-04-30T04:09:52;15.45;;;10.57;;
24559;SDS011;12727;49.934;8.656;2023-04-30T04:12:18;17.48;;;11.20;;
24559;SDS011;12727;49.934;8.656;2023-04-30T04:14:44;18.75;;;12.00;;
24559;SDS011;12727;49.934;8.656;2023-04-30T04:17:09;21.50;;;11.98;;
24559;SDS011;12727;49.934;8.656;2023-04-30T04:19:35;19.02;;;11.30;;
24559;SDS011;12727;49.934;8.656;2023-04-30T04:22:01;18.77;;;11.63;;
24559;SDS011;12727;49.934;8.656;2023-04-30T04:24:26;18.90;;;11.73;;
24559;SDS011;12727;49.934;8.656;2023-04-30T04:26:52;21.00;;;12.07;;
24559;SDS011;12727;49.934;8.656;2023-04-30T04:29:17;21.33;;;12.25;;
24559;SDS011;12727;49.934;8.656;2023-04-30T04:31:43;20.08;;;11.98;;
24559;SDS011;12727;49.934;8.656;2023-04-30T04:34:09;17.95;;;11.73;;
24559;SDS011;12727;49.934;8.656;2023-04-30T04:36:34;19.58;;;12.00;;
24559;SDS011;12727;49.934;8.656;2023-04-30T04:39:00;20.90;;;12.02;;
24559;SDS011;12727;49.934;8.656;2023-04-30T04:41:29;19.33;;;11.23;;
24559;SDS011;12727;49.934;8.656;2023-04-30T04:43:56;19.85;;;11.57;;
24559;SDS011;12727;49.934;8.656;2023-04-30T04:46:23;17.10;;;11.45;;
24559;SDS011;12727;49.934;8.656;2023-04-30T04:48:49;21.75;;;12.43;;
24559;SDS011;12727;49.934;8.656;2023-04-30T04:51:15;19.27;;;11.40;;
24559;SDS011;12727;49.934;8.656;2023-04-30T04:53:41;20.25;;;11.20;;
24559;SDS011;12727;49.934;8.656;2023-04-30T04:56:07;17.98;;;10.82;;
24559;SDS011;12727;49.934;8.656;2023-04-30T04:58:33;20.27;;;12.38;;
24559;SDS011;12727;49.934;8.656;2023-04-30T05:00:59;17.10;;;11.02;;
24559;SDS011;12727;49.934;8.656;2023-04-30T05:03:25;18.75;;;11.82;;
24559;SDS011;12727;49.934;8.656;2023-04-30T05:05:55;16.67;;;11.05;;
24559;SDS011;12727;49.934;8.656;2023-04-30T05:08:20;19.67;;;11.85;;
24559;SDS011;12727;49.934;8.656;2023-04-30T05:10:46;18.65;;;11.75;;
24559;SDS011;12727;49.934;8.656;2023-04-30T05:13:11;17.63;;;11.80;;
24559;SDS011;12727;49.934;8.656;2023-04-30T05:15:37;20.45;;;11.88;;
24559;SDS011;12727;49.934;8.656;2023-04-30T05:18:02;18.38;;;11.45;;
24559;SDS011;12727;49.934;8.656;2023-04-30T05:20:28;19.83;;;12.25;;
24559;SDS011;12727;49.934;8.656;2023-04-30T05:22:54;17.20;;;11.80;;
24559;SDS011;12727;49.934;8.656;2023-04-30T05:25:19;20.40;;;11.60;;
24559;SDS011;12727;49.934;8.656;2023-04-30T05:27:45;19.95;;;11.65;;
24559;SDS011;12727;49.934;8.656;2023-04-30T05:30:10;17.55;;;10.82;;
24559;SDS011;12727;49.934;8.656;2023-04-30T05:32:36;21.08;;;12.30;;
24559;SDS011;12727;49.934;8.656;2023-04-30T05:35:02;19.15;;;11.85;;
24559;SDS011;12727;49.934;8.656;2023-04-30T05:37:27;19.05;;;12.52;;
24559;SDS011;12727;49.934;8.656;2023-04-30T05:39:53;17.05;;;11.23;;
24559;SDS011;12727;49.934;8.656;2023-04-30T05:42:19;20.40;;;12.10;;
24559;SDS011;12727;49.934;8.656;2023-04-30T05:44:45;18.35;;;10.60;;
24559;SDS011;12727;49.934;8.656;2023-04-30T05:47:10;18.52;;;11.32;;
24559;SDS011;12727;49.934;8.656;2023-04-30T05:49:36;15.77;;;10.98;;
24559;SDS011;12727;49.934;8.656;2023-04-30T05:52:02;20.35;;;10.98;;
24559;SDS011;12727;49.934;8.656;2023-04-30T05:54:28;17.75;;;10.40;;
24559;SDS011;12727;49.934;8.656;2023-04-30T05:56:54;17.45;;;10.70;;
24559;SDS011;12727;49.934;8.656;2023-04-30T05:59:19;15.32;;;10.25;;
24559;SDS011;12727;49.934;8.656;2023-04-30T06:01:45;17.70;;;10.63;;
24559;SDS011;12727;49.934;8.656;2023-04-30T06:04:10;18.60;;;10.52;;
24559;SDS011;12727;49.934;8.656;2023-04-30T06:06:36;16.23;;;10.02;;
24559;SDS011;12727;49.934;8.656;2023-04-30T06:09:02;16.20;;;9.70;;
24559;SDS011;12727;49.934;8.656;2023-04-30T06:11:28;13.10;;;8.93;;
24559;SDS011;12727;49.934;8.656;2023-04-30T06:13:54;13.13;;;9.63;;
24559;SDS011;12727;49.934;8.656;2023-04-30T06:16:20;14.18;;;8.85;;
24559;SDS011;12727;49.934;8.656;2023-04-30T06:18:45;13.68;;;9.00;;
24559;SDS011;12727;49.934;8.656;2023-04-30T06:21:11;13.77;;;9.18;;
24559;SDS011;12727;49.934;8.656;2023-04-30T06:23:36;13.75;;;8.20;;
24559;SDS011;12727;49.934;8.656;2023-04-30T06:26:02;11.07;;;7.57;;
24559;SDS011;12727;49.934;8.656;2023-04-30T06:28:28;12.38;;;8.40;;
24559;SDS011;12727;49.934;8.656;2023-04-30T06:30:53;10.27;;;7.45;;
24559;SDS011;12727;49.934;8.656;2023-04-30T06:33:20;11.52;;;7.85;;
24559;SDS011;12727;49.934;8.656;2023-04-30T06:35:45;10.13;;;6.93;;
24559;SDS011;12727;49.934;8.656;2023-04-30T06:38:12;11.30;;;7.32;;
24559;SDS011;12727;49.934;8.656;2023-04-30T06:40:38;12.38;;;7.35;;
24559;SDS011;12727;49.934;8.656;2023-04-30T06:43:03;13.73;;;6.88;;
24559;SDS011;12727;49.934;8.656;2023-04-30T06:45:29;9.35;;;6.72;;
24559;SDS011;12727;49.934;8.656;2023-04-30T06:47:55;12.15;;;7.00;;
24559;SDS011;12727;49.934;8.656;2023-04-30T06:50:21;11.80;;;6.93;;
24559;SDS011;12727;49.934;8.656;2023-04-30T06:52:47;10.15;;;7.20;;
24559;SDS011;12727;49.934;8.656;2023-04-30T06:55:12;10.40;;;7.00;;
24559;SDS011;12727;49.934;8.656;2023-04-30T06:57:38;9.15;;;6.20;;
24559;SDS011;12727;49.934;8.656;2023-04-30T07:00:04;9.75;;;6.32;;
24559;SDS011;12727;49.934;8.656;2023-04-30T07:02:33;9.90;;;6.10;;
24559;SDS011;12727;49.934;8.656;2023-04-30T07:04:58;10.55;;;6.65;;
24559;SDS011;12727;49.934;8.656;2023-04-30T07:07:24;9.90;;;6.25;;
24559;SDS011;12727;49.934;8.656;2023-04-30T07:09:50;8.70;;;5.78;;
24559;SDS011;12727;49.934;8.656;2023-04-30T07:12:17;8.32;;;5.68;;
24559;SDS011;12727;49.934;8.656;2023-04-30T07:14:42;8.90;;;5.63;;
24559;SDS011;12727;49.934;8.656;2023-04-30T07:17:08;7.68;;;5.47;;
24559;SDS011;12727;49.934;8.656;2023-04-30T07:19:35;7.00;;;5.05;;
24559;SDS011;12727;49.934;8.656;2023-04-30T07:22:00;8.38;;;4.88;;
24559;SDS011;12727;49.934;8.656;2023-04-30T07:24:26;5.65;;;4.32;;
24559;SDS011;12727;49.934;8.656;2023-04-30T07:27:02;6.88;;;4.28;;
24559;SDS011;12727;49.934;8.656;2023-04-30T07:29:28;6.68;;;4.30;;
24559;SDS011;12727;49.934;8.656;2023-04-30T07:31:54;7.80;;;4.60;;
24559;SDS011;12727;49.934;8.656;2023-04-30T07:34:20;6.00;;;4.35;;
24559;SDS011;12727;49.934;8.656;2023-04-30T07:36:47;6.47;;;4.05;;
24559;SDS011;12727;49.934;8.656;2023-04-30T07:39:12;6.68;;;4.05;;
24559;SDS011;12727;49.934;8.656;2023-04-30T07:41:38;6.95;;;4.25;;
24559;SDS011;12727;49.934;8.656;2023-04-30T07:44:04;6.63;;;4.20;;
24559;SDS011;12727;49.934;8.656;2023-04-30T07:46:29;7.05;;;4.45;;
24559;SDS011;12727;49.934;8.656;2023-04-30T07:48:55;4.97;;;3.50;;
24559;SDS011;12727;49.934;8.656;2023-04-30T07:51:21;6.55;;;4.13;;
24559;SDS011;12727;49.934;8.656;2023-04-30T07:53:46;6.47;;;3.97;;
24559;SDS011;12727;49.934;8.656;2023-04-30T07:56:12;5.00;;;3.72;;
24559;SDS011;12727;49.934;8.656;2023-04-30T07:58:38;5.75;;;3.65;;
24559;SDS011;12727;49.934;8.656;2023-04-30T08:01:03;3.35;;;3.00;;
24559;SDS011;12727;49.934;8.656;2023-04-30T08:03:29;5.85;;;3.00;;
24559;SDS011;12727;49.934;8.656;2023-04-30T08:05:54;4.65;;;2.97;;
24559;SDS011;12727;49.934;8.656;2023-04-30T08:08:20;3.95;;;3.03;;
24559;SDS011;12727;49.934;8.656;2023-04-30T08:10:46;5.28;;;3.05;;
24559;SDS011;12727;49.934;8.656;2023-04-30T08:13:11;4.05;;;3.08;;
24559;SDS011;12727;49.934;8.656;2023-04-30T08:15:37;3.10;;;2.53;;
24559;SDS011;12727;49.934;8.656;2023-04-30T08:18:04;4.30;;;2.33;;
24559;SDS011;12727;49.934;8.656;2023-04-30T08:20:30;3.85;;;2.40;;
24559;SDS011;12727;49.934;8.656;2023-04-30T08:22:56;4.45;;;2.40;;
24559;SDS011;12727;49.934;8.656;2023-04-30T08:25:22;2.58;;;2.08;;
24559;SDS011;12727;49.934;8.656;2023-04-30T08:27:48;2.75;;;2.22;;
24559;SDS011;12727;49.934;8.656;2023-04-30T08:30:14;2.80;;;2.40;;
24559;SDS011;12727;49.934;8.656;2023-04-30T08:32:39;4.28;;;1.95;;
24559;SDS011;12727;49.934;8.656;2023-04-30T08:35:05;2.38;;;1.85;;
24559;SDS011;12727;49.934;8.656;2023-04-30T08:37:31;2.97;;;1.63;;
24559;SDS011;12727;49.934;8.656;2023-04-30T08:39:58;2.47;;;1.63;;
24559;SDS011;12727;49.934;8.656;2023-04-30T08:42:24;2.30;;;1.80;;
24559;SDS011;12727;49.934;8.656;2023-04-30T08:44:59;2.47;;;1.80;;
24559;SDS011;12727;49.934;8.656;2023-04-30T08:47:26;3.60;;;1.80;;
24559;SDS011;12727;49.934;8.656;2023-04-30T08:49:52;2.00;;;1.30;;
24559;SDS011;12727;49.934;8.656;2023-04-30T08:52:17;2.33;;;1.20;;
24559;SDS011;12727;49.934;8.656;2023-04-30T08:54:43;1.70;;;1.30;;
24559;SDS011;12727;49.934;8.656;2023-04-30T08:57:11;2.63;;;1.67;;
24559;SDS011;12727;49.934;8.656;2023-04-30T08:59:36;1.45;;;1.02;;
24559;SDS011;12727;49.934;8.656;2023-04-30T09:02:02;1.80;;;1.20;;
24559;SDS011;12727;49.934;8.656;2023-04-30T09:04:29;1.90;;;1.35;;
24559;SDS011;12727;49.934;8.656;2023-04-30T09:06:54;2.90;;;1.40;;
24559;SDS011;12727;49.934;8.656;2023-04-30T09:09:36;2.03;;;1.20;;
24559;SDS011;12727;49.934;8.656;2023-04-30T09:15:03;1.13;;;0.90;;
24559;SDS011;12727;49.934;8.656;2023-04-30T09:17:29;1.02;;;0.80;;
24559;SDS011;12727;49.934;8.656;2023-04-30T09:20:11;1.00;;;0.90;;
24559;SDS011;12727;49.934;8.656;2023-04-30T09:22:38;0.75;;;0.70;;
24559;SDS011;12727;49.934;8.656;2023-04-30T09:25:05;1.00;;;0.85;;
24559;SDS011;12727;49.934;8.656;2023-04-30T09:27:31;1.20;;;0.80;;
24559;SDS011;12727;49.934;8.656;2023-04-30T09:29:57;1.77;;;1.08;;
24559;SDS011;12727;49.934;8.656;2023-04-30T09:32:23;1.88;;;0.90;;
24559;SDS011;12727;49.934;8.656;2023-04-30T09:34:49;0.98;;;0.70;;
24559;SDS011;12727;49.934;8.656;2023-04-30T09:37:15;1.38;;;0.80;;
24559;SDS011;12727;49.934;8.656;2023-04-30T09:42:16;1.13;;;0.90;;
24559;SDS011;12727;49.934;8.656;2023-04-30T09:44:46;0.75;;;0.73;;
24559;SDS011;12727;49.934;8.656;2023-04-30T09:47:13;1.10;;;0.80;;
24559;SDS011;12727;49.934;8.656;2023-04-30T09:49:40;1.10;;;0.70;;
24559;SDS011;12727;49.934;8.656;2023-04-30T09:52:07;0.80;;;0.65;;
24559;SDS011;12727;49.934;8.656;2023-04-30T09:54:33;0.77;;;0.60;;
24559;SDS011;12727;49.934;8.656;2023-04-30T09:57:01;3.22;;;0.85;;
24559;SDS011;12727;49.934;8.656;2023-04-30T09:59:28;0.73;;;0.52;;
24559;SDS011;12727;49.934;8.656;2023-04-30T10:01:56;0.75;;;0.63;;
24559;SDS011;12727;49.934;8.656;2023-04-30T10:04:24;2.00;;;0.70;;
24559;SDS011;12727;49.934;8.656;2023-04-30T10:06:52;1.02;;;0.60;;
24559;SDS011;12727;49.934;8.656;2023-04-30T10:09:21;0.60;;;0.50;;
24559;SDS011;12727;49.934;8.656;2023-04-30T10:11:48;1.23;;;0.60;;
24559;SDS011;12727;49.934;8.656;2023-04-30T10:14:15;0.90;;;0.60;;
24559;SDS011;12727;49.934;8.656;2023-04-30T10:19:45;1.20;;;0.70;;
24559;SDS011;12727;49.934;8.656;2023-04-30T10:22:13;0.93;;;0.65;;
24559;SDS011;12727;49.934;8.656;2023-04-30T10:24:41;0.60;;;0.50;;
24559;SDS011;12727;49.934;8.656;2023-04-30T10:27:08;1.52;;;0.68;;
24559;SDS011;12727;49.934;8.656;2023-04-30T10:29:34;0.88;;;0.40;;
24559;SDS011;12727;49.934;8.656;2023-04-30T10:31:59;0.73;;;0.60;;
24559;SDS011;12727;49.934;8.656;2023-04-30T10:37:33;0.88;;;0.55;;
24559;SDS011;12727;49.934;8.656;2023-04-30T10:40:07;0.70;;;0.55;;
24559;SDS011;12727;49.934;8.656;2023-04-30T10:42:34;0.82;;;0.52;;
24559;SDS011;12727;49.934;8.656;2023-04-30T10:45:03;0.60;;;0.45;;
24559;SDS011;12727;49.934;8.656;2023-04-30T10:47:29;1.35;;;0.50;;
24559;SDS011;12727;49.934;8.656;2023-04-30T10:50:07;2.17;;;0.80;;
24559;SDS011;12727;49.934;8.656;2023-04-30T10:52:33;0.82;;;0.63;;
24559;SDS011;12727;49.934;8.656;2023-04-30T10:55:02;0.75;;;0.50;;
24559;SDS011;12727;49.934;8.656;2023-04-30T10:57:29;2.25;;;0.50;;
24559;SDS011;12727;49.934;8.656;2023-04-30T11:00:16;0.60;;;0.50;;
24559;SDS011;12727;49.934;8.656;2023-04-30T11:02:44;0.95;;;0.50;;
24559;SDS011;12727;49.934;8.656;2023-04-30T11:05:16;0.55;;;0.40;;
24559;SDS011;12727;49.934;8.656;2023-04-30T11:07:50;0.43;;;0.38;;
24559;SDS011;12727;49.934;8.656;2023-04-30T11:10:16;1.40;;;0.57;;
24559;SDS011;12727;49.934;8.656;2023-04-30T11:12:47;0.93;;;0.50;;
24559;SDS011;12727;49.934;8.656;2023-04-30T11:15:17;1.50;;;0.70;;
24559;SDS011;12727;49.934;8.656;2023-04-30T11:17:46;1.33;;;0.47;;
24559;SDS011;12727;49.934;8.656;2023-04-30T11:20:14;1.25;;;0.60;;
24559;SDS011;12727;49.934;8.656;2023-04-30T11:22:44;0.77;;;0.50;;
24559;SDS011;12727;49.934;8.656;2023-04-30T11:25:10;0.77;;;0.50;;
24559;SDS011;12727;49.934;8.656;2023-04-30T11:27:41;0.60;;;0.52;;
24559;SDS011;12727;49.934;8.656;2023-04-30T11:30:10;0.80;;;0.63;;
24559;SDS011;12727;49.934;8.656;2023-04-30T11:32:39;0.60;;;0.40;;
24559;SDS011;12727;49.934;8.656;2023-04-30T11:35:06;0.82;;;0.43;;
24559;SDS011;12727;49.934;8.656;2023-04-30T11:37:39;0.82;;;0.38;;
24559;SDS011;12727;49.934;8.656;2023-04-30T11:40:08;1.42;;;0.40;;
24559;SDS011;12727;49.934;8.656;2023-04-30T11:42:38;0.70;;;0.50;;
24559;SDS011;12727;49.934;8.656;2023-04-30T11:45:06;0.70;;;0.50;;
24559;SDS011;12727;49.934;8.656;2023-04-30T11:50:07;0.60;;;0.50;;
24559;SDS011;12727;49.934;8.656;2023-04-30T11:52:33;0.60;;;0.50;;
24559;SDS011;12727;49.934;8.656;2023-04-30T11:54:59;0.68;;;0.52;;
24559;SDS011;12727;49.934;8.656;2023-04-30T11:57:33;0.85;;;0.38;;
24559;SDS011;12727;49.934;8.656;2023-04-30T12:00:11;0.70;;;0.40;;
24559;SDS011;12727;49.934;8.656;2023-04-30T12:05:04;1.50;;;0.40;;
24559;SDS011;12727;49.934;8.656;2023-04-30T12:07:36;2.15;;;0.60;;
24559;SDS011;12727;49.934;8.656;2023-04-30T12:10:02;0.88;;;0.50;;
24559;SDS011;12727;49.934;8.656;2023-04-30T12:12:28;0.50;;;0.40;;
24559;SDS011;12727;49.934;8.656;2023-04-30T12:14:55;0.80;;;0.50;;
24559;SDS011;12727;49.934;8.656;2023-04-30T12:17:30;0.50;;;0.40;;
24559;SDS011;12727;49.934;8.656;2023-04-30T12:19:59;0.60;;;0.40;;
24559;SDS011;12727;49.934;8.656;2023-04-30T12:22:25;0.40;;;0.32;;
24559;SDS011;12727;49.934;8.656;2023-04-30T12:24:51;0.63;;;0.50;;
24559;SDS011;12727;49.934;8.656;2023-04-30T12:27:16;0.55;;;0.30;;
24559;SDS011;12727;49.934;8.656;2023-04-30T12:29:42;0.43;;;0.30;;
24559;SDS011;12727;49.934;8.656;2023-04-30T12:32:10;1.38;;;0.40;;
24559;SDS011;12727;49.934;8.656;2023-04-30T12:34:40;0.65;;;0.50;;
24559;SDS011;12727;49.934;8.656;2023-04-30T12:37:06;0.75;;;0.40;;
24559;SDS011;12727;49.934;8.656;2023-04-30T12:39:35;1.00;;;0.50;;
24559;SDS011;12727;49.934;8.656;2023-04-30T12:42:01;1.95;;;0.50;;
24559;SDS011;12727;49.934;8.656;2023-04-30T12:44:28;1.90;;;0.30;;
24559;SDS011;12727;49.934;8.656;2023-04-30T12:46:54;0.98;;;0.50;;
24559;SDS011;12727;49.934;8.656;2023-04-30T12:49:28;0.45;;;0.30;;
24559;SDS011;12727;49.934;8.656;2023-04-30T12:51:58;0.45;;;0.30;;
24559;SDS011;12727;49.934;8.656;2023-04-30T12:54:25;0.68;;;0.50;;
24559;SDS011;12727;49.934;8.656;2023-04-30T12:57:05;0.73;;;0.40;;
24559;SDS011;12727;49.934;8.656;2023-04-30T13:02:32;0.50;;;0.35;;
24559;SDS011;12727;49.934;8.656;2023-04-30T13:04:58;0.55;;;0.30;;
24559;SDS011;12727;49.934;8.656;2023-04-30T13:07:24;0.47;;;0.22;;
24559;SDS011;12727;49.934;8.656;2023-04-30T13:09:50;0.45;;;0.20;;
24559;SDS011;12727;49.934;8.656;2023-04-30T13:12:16;0.30;;;0.30;;
24559;SDS011;12727;49.934;8.656;2023-04-30T13:14:41;0.20;;;0.20;;
24559;SDS011;12727;49.934;8.656;2023-04-30T13:17:07;0.43;;;0.20;;
24559;SDS011;12727;49.934;8.656;2023-04-30T13:19:35;0.40;;;0.22;;
24559;SDS011;12727;49.934;8.656;2023-04-30T13:22:00;0.22;;;0.20;;
24559;SDS011;12727;49.934;8.656;2023-04-30T13:24:26;1.50;;;0.30;;
24559;SDS011;12727;49.934;8.656;2023-04-30T13:26:52;0.50;;;0.30;;
24559;SDS011;12727;49.934;8.656;2023-04-30T13:29:18;0.22;;;0.20;;
24559;SDS011;12727;49.934;8.656;2023-04-30T13:31:46;0.20;;;0.20;;
24559;SDS011;12727;49.934;8.656;2023-04-30T13:34:13;0.40;;;0.22;;
24559;SDS011;12727;49.934;8.656;2023-04-30T13:36:39;1.65;;;0.20;;
24559;SDS011;12727;49.934;8.656;2023-04-30T13:39:05;0.28;;;0.20;;
24559;SDS011;12727;49.934;8.656;2023-04-30T13:41:31;0.75;;;0.20;;
24559;SDS011;12727;49.934;8.656;2023-04-30T13:43:56;0.20;;;0.10;;
24559;SDS011;12727;49.934;8.656;2023-04-30T13:46:24;0.75;;;0.10;;
24559;SDS011;12727;49.934;8.656;2023-04-30T13:48:50;0.65;;;0.35;;
24559;SDS011;12727;49.934;8.656;2023-04-30T13:51:17;0.70;;;0.30;;
24559;SDS011;12727;49.934;8.656;2023-04-30T13:53:43;0.10;;;0.10;;
24559;SDS011;12727;49.934;8.656;2023-04-30T13:56:09;0.55;;;0.30;;
24559;SDS011;12727;49.934;8.656;2023-04-30T13:58:35;0.22;;;0.10;;
24559;SDS011;12727;49.934;8.656;2023-04-30T14:01:01;0.30;;;0.20;;
24559;SDS011;12727;49.934;8.656;2023-04-30T14:03:27;0.73;;;0.20;;
24559;SDS011;12727;49.934;8.656;2023-04-30T14:05:53;0.35;;;0.20;;
24559;SDS011;12727;49.934;8.656;2023-04-30T14:08:19;0.40;;;0.20;;
24559;SDS011;12727;49.934;8.656;2023-04-30T14:10:44;0.20;;;0.15;;
24559;SDS011;12727;49.934;8.656;2023-04-30T14:13:10;0.13;;;0.10;;
24559;SDS011;12727;49.934;8.656;2023-04-30T14:15:36;0.47;;;0.17;;
24559;SDS011;12727;49.934;8.656;2023-04-30T14:18:02;0.60;;;0.20;;
24559;SDS011;12727;49.934;8.656;2023-04-30T14:20:28;0.20;;;0.20;;
24559;SDS011;12727;49.934;8.656;2023-04-30T14:22:54;0.20;;;0.20;;
24559;SDS011;12727;49.934;8.656;2023-04-30T14:25:20;0.43;;;0.20;;
24559;SDS011;12727;49.934;8.656;2023-04-30T14:27:46;0.40;;;0.20;;
24559;SDS011;12727;49.934;8.656;2023-04-30T14:30:12;0.20;;;0.20;;
24559;SDS011;12727;49.934;8.656;2023-04-30T14:32:37;0.25;;;0.20;;
24559;SDS011;12727;49.934;8.656;2023-04-30T14:35:03;0.20;;;0.20;;
24559;SDS011;12727;49.934;8.656;2023-04-30T14:37:30;0.43;;;0.20;;
24559;SDS011;12727;49.934;8.656;2023-04-30T14:39:55;0.82;;;0.20;;
24559;SDS011;12727;49.934;8.656;2023-04-30T14:42:22;0.45;;;0.22;;
24559;SDS011;12727;49.934;8.656;2023-04-30T14:44:48;0.20;;;0.20;;
24559;SDS011;12727;49.934;8.656;2023-04-30T14:47:13;0.20;;;0.20;;
24559;SDS011;12727;49.934;8.656;2023-04-30T14:49:39;0.22;;;0.20;;
24559;SDS011;12727;49.934;8.656;2023-04-30T14:52:05;0.30;;;0.30;;
24559;SDS011;12727;49.934;8.656;2023-04-30T14:54:30;0.20;;;0.20;;
24559;SDS011;12727;49.934;8.656;2023-04-30T14:56:56;0.45;;;0.20;;
24559;SDS011;12727;49.934;8.656;2023-04-30T14:59:21;1.10;;;0.20;;
24559;SDS011;12727;49.934;8.656;2023-04-30T15:01:50;3.10;;;0.20;;
24559;SDS011;12727;49.934;8.656;2023-04-30T15:04:15;0.60;;;0.30;;
24559;SDS011;12727;49.934;8.656;2023-04-30T15:06:41;0.30;;;0.28;;
24559;SDS011;12727;49.934;8.656;2023-04-30T15:09:07;0.88;;;0.30;;
24559;SDS011;12727;49.934;8.656;2023-04-30T15:11:32;0.22;;;0.20;;